Terminal Aerodrome Forecast
Issued by NWS Wakefield, VA

Home | Current Version | Previous Version | Text Only | Print | Product List | Glossary On
Versions: 1 2 3 4 5 6 7 8 9 10 11 12
000
FTUS41 KAKQ 261720
TAFECG
TAF
KECG 261720Z 2618/2718 27007KT P6SM SKC
     FM262000 19005KT P6SM BKN050
     FM262300 26005KT P6SM BKN040
     FM270200 20006KT P6SM BKN050
     FM270900 24005KT P6SM SCT050=

USA.gov is the U.S. government's official web portal to all federal, state and local government web resources and services.